createdAt,value
2019-04-04T00:00:47.098Z,28.57
2019-04-04T00:03:16.671Z,24.03
2019-04-04T00:05:46.148Z,23.90
2019-04-04T00:08:15.407Z,22.10
2019-04-04T00:10:44.558Z,27.27
2019-04-04T00:13:31.958Z,23.60
2019-04-04T00:16:01.376Z,24.50
2019-04-04T00:18:31.566Z,21.67
2019-04-04T00:21:03.686Z,20.83
2019-04-04T00:23:33.460Z,27.57
2019-04-04T00:26:02.816Z,27.30
2019-04-04T00:28:32.922Z,24.60
2019-04-04T00:31:02.086Z,21.47
2019-04-04T00:33:31.313Z,25.50
2019-04-04T00:36:02.662Z,20.60
2019-04-04T00:38:31.851Z,23.77
2019-04-04T00:41:01.091Z,20.10
2019-04-04T00:43:30.500Z,22.70
2019-04-04T00:46:00.804Z,23.40
2019-04-04T00:48:32.135Z,21.00
2019-04-04T00:51:01.922Z,23.47
2019-04-04T00:53:31.325Z,26.07
2019-04-04T00:56:00.484Z,24.83
2019-04-04T00:58:30.014Z,20.13
2019-04-04T01:00:59.570Z,22.40
2019-04-04T01:03:30.079Z,32.37
2019-04-04T01:06:02.928Z,23.23
2019-04-04T01:08:32.183Z,19.50
2019-04-04T01:11:01.899Z,23.77
2019-04-04T01:13:31.102Z,29.13
2019-04-04T01:16:02.454Z,21.57
2019-04-04T01:18:35.002Z,21.60
2019-04-04T01:21:05.077Z,25.27
2019-04-04T01:23:34.398Z,29.93
2019-04-04T01:26:04.299Z,23.50
2019-04-04T01:28:33.543Z,23.13
2019-04-04T01:31:02.984Z,21.90
2019-04-04T01:33:32.643Z,25.57
2019-04-04T01:36:02.922Z,19.30
2019-04-04T01:38:34.306Z,20.37
2019-04-04T01:41:05.070Z,23.73
2019-04-04T01:43:34.990Z,22.20
2019-04-04T01:46:04.593Z,21.63
2019-04-04T01:48:33.958Z,22.60
2019-04-04T01:51:03.146Z,27.70
2019-04-04T01:53:32.714Z,18.07
2019-04-04T01:56:02.146Z,19.97
2019-04-04T01:58:31.623Z,26.90
2019-04-04T02:01:01.481Z,21.93
2019-04-04T02:03:31.381Z,22.60
2019-04-04T02:06:01.799Z,20.97
2019-04-04T02:08:32.051Z,22.27
2019-04-04T02:11:01.567Z,22.87
2019-04-04T02:13:30.762Z,20.17
2019-04-04T02:16:02.986Z,24.73
2019-04-04T02:18:32.280Z,27.17
2019-04-04T02:21:01.677Z,25.33
2019-04-04T02:23:31.772Z,24.13
2019-04-04T02:26:04.894Z,21.30
2019-04-04T02:28:32.750Z,22.60
2019-04-04T02:31:02.381Z,21.77
2019-04-04T02:33:32.532Z,21.40
2019-04-04T02:36:02.792Z,23.97
2019-04-04T02:39:04.101Z,20.37
2019-04-04T02:41:33.513Z,22.10
2019-04-04T02:44:09.043Z,27.20
2019-04-04T02:46:38.530Z,22.27
2019-04-04T02:49:08.353Z,21.77
2019-04-04T02:51:41.088Z,24.80
2019-04-04T02:54:08.668Z,19.43
2019-04-04T02:56:38.178Z,26.90
2019-04-04T02:59:08.028Z,19.80
2019-04-04T03:01:38.435Z,20.80
2019-04-04T03:04:07.909Z,22.90
2019-04-04T03:06:37.379Z,19.23
2019-04-04T03:09:09.949Z,28.17
2019-04-04T03:11:39.620Z,24.87
2019-04-04T03:14:08.912Z,29.40
2019-04-04T03:16:38.464Z,23.97
2019-04-04T03:19:11.093Z,23.93
2019-04-04T03:21:38.927Z,23.60
2019-04-04T03:24:08.418Z,22.63
2019-04-04T03:26:37.968Z,23.47
2019-04-04T03:29:10.177Z,23.20
2019-04-04T03:31:39.081Z,21.50
2019-04-04T03:34:15.087Z,22.33
2019-04-04T03:36:45.365Z,28.00
2019-04-04T03:39:19.122Z,20.00
2019-04-04T03:41:46.520Z,26.23
2019-04-04T03:44:19.577Z,18.80
2019-04-04T03:46:47.220Z,22.80
2019-04-04T03:49:16.639Z,27.20
2019-04-04T03:51:56.552Z,24.20
2019-04-04T03:54:27.021Z,22.50
2019-04-04T03:57:14.551Z,23.53
2019-04-04T03:59:44.958Z,17.87
2019-04-04T04:02:17.867Z,20.70
2019-04-04T04:04:45.569Z,28.30
2019-04-04T04:07:15.406Z,21.57
2019-04-04T04:09:45.056Z,20.63
2019-04-04T04:12:14.631Z,23.73
2019-04-04T04:14:43.826Z,21.37
2019-04-04T04:17:13.086Z,29.37
2019-04-04T04:19:42.602Z,23.63
2019-04-04T04:22:15.843Z,26.30
2019-04-04T04:24:44.076Z,22.97
2019-04-04T04:27:15.591Z,30.43
2019-04-04T04:29:46.376Z,29.63
2019-04-04T04:32:21.293Z,19.63
2019-04-04T04:34:47.818Z,33.67
2019-04-04T04:37:19.874Z,19.70
2019-04-04T04:39:48.067Z,24.87
2019-04-04T04:42:20.814Z,26.00
2019-04-04T04:44:48.344Z,31.97
2019-04-04T04:47:17.809Z,33.20
2019-04-04T04:49:48.861Z,20.43
2019-04-04T04:52:18.310Z,24.70
2019-04-04T04:54:47.554Z,20.00
2019-04-04T04:57:29.474Z,26.97
2019-04-04T04:59:50.336Z,24.83
2019-04-04T05:02:22.031Z,22.73
2019-04-04T05:04:50.962Z,24.40
2019-04-04T05:07:20.783Z,23.37
2019-04-04T05:09:55.790Z,22.40
2019-04-04T05:12:25.178Z,22.90
2019-04-04T05:14:54.659Z,22.67
2019-04-04T05:17:23.902Z,24.57
2019-04-04T05:19:59.038Z,23.57
2019-04-04T05:22:34.371Z,29.87
2019-04-04T05:25:23.502Z,28.77
2019-04-04T05:27:52.900Z,25.90
2019-04-04T05:30:22.051Z,26.70
2019-04-04T05:32:53.104Z,22.53
2019-04-04T05:35:37.980Z,29.50
2019-04-04T05:38:07.907Z,25.43
2019-04-04T05:40:39.196Z,24.87
2019-04-04T05:43:08.415Z,23.70
2019-04-04T05:45:37.940Z,23.23
2019-04-04T05:48:07.678Z,22.17
2019-04-04T05:50:36.969Z,22.73
2019-04-04T05:53:06.483Z,27.57
2019-04-04T05:55:35.974Z,21.30
2019-04-04T05:58:05.402Z,32.57
2019-04-04T06:00:39.364Z,26.97
2019-04-04T06:03:08.577Z,26.47
2019-04-04T06:05:38.900Z,26.60
2019-04-04T06:08:08.818Z,27.73
2019-04-04T06:10:38.984Z,28.23
2019-04-04T06:13:09.405Z,27.43
2019-04-04T06:15:38.964Z,23.30
2019-04-04T06:18:12.887Z,37.30
2019-04-04T06:20:42.041Z,30.23
2019-04-04T06:23:11.580Z,23.13
2019-04-04T06:25:41.100Z,23.00
2019-04-04T06:28:12.093Z,28.13
2019-04-04T06:30:43.359Z,24.07
2019-04-04T06:33:12.911Z,22.97
2019-04-04T06:35:42.536Z,26.20
2019-04-04T06:38:29.632Z,20.63
2019-04-04T06:41:01.593Z,30.60
2019-04-04T06:43:33.691Z,28.03
2019-04-04T06:46:02.923Z,28.53
2019-04-04T06:48:33.841Z,28.20
2019-04-04T06:51:03.675Z,26.60
2019-04-04T06:53:33.094Z,26.70
2019-04-04T06:56:02.586Z,31.63
2019-04-04T06:58:32.189Z,24.17
2019-04-04T07:01:01.747Z,30.10
2019-04-04T07:03:31.058Z,24.90
2019-04-04T07:06:00.269Z,24.13
2019-04-04T07:08:29.648Z,26.53
2019-04-04T07:11:02.753Z,27.10
2019-04-04T07:13:41.642Z,24.20
2019-04-04T07:16:07.013Z,22.27
2019-04-04T07:18:34.243Z,29.40
2019-04-04T07:21:03.863Z,29.47
2019-04-04T07:23:33.229Z,29.17
2019-04-04T07:26:03.171Z,25.97
2019-04-04T07:28:32.379Z,32.23
2019-04-04T07:31:02.482Z,22.40
2019-04-04T07:33:31.844Z,26.20
2019-04-04T07:36:02.125Z,24.37
2019-04-04T07:38:34.921Z,29.60
2019-04-04T07:41:03.234Z,27.60
2019-04-04T07:43:32.996Z,29.70
2019-04-04T07:46:15.722Z,25.30
2019-04-04T07:48:33.618Z,24.33
2019-04-04T07:51:03.155Z,35.47
2019-04-04T07:53:34.232Z,34.27
2019-04-04T07:56:03.853Z,28.03
2019-04-04T07:58:33.681Z,26.20
2019-04-04T08:01:02.846Z,31.40
2019-04-04T08:03:32.295Z,26.53
2019-04-04T08:06:01.495Z,24.93
2019-04-04T08:08:31.725Z,31.90
2019-04-04T08:11:00.888Z,23.30
2019-04-04T08:13:30.358Z,35.60
2019-04-04T08:16:00.091Z,25.67
2019-04-04T08:18:29.253Z,25.43
2019-04-04T08:20:58.518Z,27.37
2019-04-04T08:23:27.991Z,29.03
2019-04-04T08:25:57.579Z,34.17
2019-04-04T08:28:26.981Z,26.00
2019-04-04T08:30:56.443Z,25.20
2019-04-04T08:33:25.605Z,27.07
2019-04-04T08:36:05.345Z,23.90
2019-04-04T08:38:26.218Z,30.10
2019-04-04T08:40:57.339Z,26.30
2019-04-04T08:43:26.616Z,25.60
2019-04-04T08:45:56.085Z,26.23
2019-04-04T08:48:25.439Z,31.33
2019-04-04T08:50:54.712Z,31.90
2019-04-04T08:53:24.113Z,26.57
2019-04-04T08:55:53.547Z,32.97
2019-04-04T08:58:22.774Z,31.97
2019-04-04T09:00:51.996Z,32.90
2019-04-04T09:03:21.160Z,27.97
2019-04-04T09:05:50.438Z,26.47
2019-04-04T09:08:19.638Z,28.07
2019-04-04T09:10:48.869Z,30.87
2019-04-04T09:13:19.603Z,35.80
2019-04-04T09:15:48.769Z,29.80
2019-04-04T09:18:18.029Z,34.10
2019-04-04T09:20:47.307Z,31.07
2019-04-04T09:23:16.471Z,34.83
2019-04-04T09:25:45.715Z,25.83
2019-04-04T09:28:14.995Z,27.53
2019-04-04T09:30:44.168Z,32.07
2019-04-04T09:33:13.318Z,28.03
2019-04-04T09:35:42.534Z,28.03
2019-04-04T09:38:11.970Z,28.93
2019-04-04T09:40:41.208Z,26.43
2019-04-04T09:43:10.913Z,27.80
2019-04-04T09:45:40.085Z,33.53
2019-04-04T09:48:09.362Z,28.43
2019-04-04T09:50:38.649Z,29.13
2019-04-04T09:53:07.820Z,33.93
2019-04-04T09:55:36.984Z,30.73
2019-04-04T09:58:06.276Z,25.90
2019-04-04T10:00:35.511Z,24.27
2019-04-04T10:03:04.919Z,34.70
2019-04-04T10:05:34.290Z,28.50
2019-04-04T10:08:03.628Z,31.90
2019-04-04T10:10:32.800Z,28.50
2019-04-04T10:13:01.999Z,22.93
2019-04-04T10:15:31.146Z,26.63
2019-04-04T10:18:00.982Z,32.93
2019-04-04T10:20:30.179Z,26.50
2019-04-04T10:22:59.418Z,30.43
2019-04-04T10:25:28.577Z,28.70
2019-04-04T10:27:57.773Z,27.30
2019-04-04T10:30:26.999Z,27.63
2019-04-04T10:32:56.159Z,23.83
2019-04-04T10:35:25.365Z,31.30
2019-04-04T10:37:54.578Z,41.17
2019-04-04T10:40:23.745Z,32.83
2019-04-04T10:42:52.926Z,30.53
2019-04-04T10:45:22.240Z,36.83
2019-04-04T10:47:51.402Z,29.47
2019-04-04T10:50:20.755Z,31.83
2019-04-04T10:52:49.969Z,34.57
2019-04-04T10:55:19.391Z,34.47
2019-04-04T10:57:48.586Z,35.50
2019-04-04T11:00:17.891Z,28.57
2019-04-04T11:02:47.046Z,29.83
2019-04-04T11:05:16.391Z,32.40
2019-04-04T11:07:45.853Z,30.40
2019-04-04T11:10:15.459Z,31.27
2019-04-04T11:12:44.906Z,39.63
2019-04-04T11:15:14.617Z,26.93
2019-04-04T11:17:43.886Z,32.67
2019-04-04T11:20:13.243Z,35.20
2019-04-04T11:22:42.488Z,36.90
2019-04-04T11:25:11.986Z,33.53
2019-04-04T11:27:41.188Z,29.83
2019-04-04T11:30:11.384Z,36.43
2019-04-04T11:32:41.808Z,36.17
2019-04-04T11:35:11.528Z,25.20
2019-04-04T11:37:40.763Z,30.90
2019-04-04T11:40:11.668Z,30.93
2019-04-04T11:42:41.176Z,38.57
2019-04-04T11:45:10.767Z,34.37
2019-04-04T11:47:40.697Z,30.17
2019-04-04T11:50:10.968Z,30.93
2019-04-04T11:52:40.661Z,29.57
2019-04-04T11:55:13.138Z,29.67
2019-04-04T11:57:42.570Z,38.27
2019-04-04T12:00:14.436Z,27.93
2019-04-04T12:02:43.795Z,29.93
2019-04-04T12:05:13.568Z,26.53
2019-04-04T12:07:43.002Z,30.57
2019-04-04T12:10:13.279Z,27.23
2019-04-04T12:12:42.473Z,31.23
2019-04-04T12:15:13.160Z,30.13
2019-04-04T12:17:42.314Z,35.20
2019-04-04T12:20:12.580Z,30.23
2019-04-04T12:22:41.822Z,30.60
2019-04-04T12:25:12.002Z,37.43
2019-04-04T12:27:41.222Z,31.43
2019-04-04T12:30:13.914Z,34.17
2019-04-04T12:32:43.541Z,35.03
2019-04-04T12:35:13.004Z,34.50
2019-04-04T12:37:42.474Z,36.10
2019-04-04T12:40:20.605Z,24.27
2019-04-04T12:42:44.726Z,32.40
2019-04-04T12:45:14.629Z,30.33
2019-04-04T12:47:44.143Z,28.30
2019-04-04T12:50:13.993Z,33.33
2019-04-04T12:52:44.341Z,31.27
2019-04-04T12:55:13.840Z,29.03
2019-04-04T12:57:43.041Z,30.47
2019-04-04T13:00:13.677Z,32.27
2019-04-04T13:02:42.853Z,33.63
2019-04-04T13:05:12.631Z,30.43
2019-04-04T13:07:41.804Z,26.67
2019-04-04T13:10:12.322Z,25.70
2019-04-04T13:12:41.660Z,32.40
2019-04-04T13:15:11.724Z,31.10
2019-04-04T13:17:41.105Z,31.57
2019-04-04T13:20:11.623Z,37.17
2019-04-04T13:22:40.856Z,29.23
2019-04-04T13:25:11.467Z,32.87
2019-04-04T13:27:41.967Z,31.60
2019-04-04T13:30:12.683Z,31.10
2019-04-04T13:32:42.221Z,37.63
2019-04-04T13:35:12.958Z,29.50
2019-04-04T13:37:42.403Z,38.00
2019-04-04T13:40:12.107Z,41.97
2019-04-04T13:42:41.462Z,31.43
2019-04-04T13:45:11.508Z,30.23
2019-04-04T13:47:40.833Z,26.70
2019-04-04T13:50:12.584Z,41.67
2019-04-04T13:52:41.901Z,35.23
2019-04-04T13:55:11.240Z,28.30
2019-04-04T13:57:40.543Z,32.50
2019-04-04T14:00:11.140Z,33.23
2019-04-04T14:02:40.395Z,26.33
2019-04-04T14:05:14.131Z,32.60
2019-04-04T14:07:43.613Z,29.33
2019-04-04T14:10:17.117Z,34.03
2019-04-04T14:12:44.542Z,28.73
2019-04-04T14:15:14.843Z,40.80
2019-04-04T14:17:44.364Z,33.20
2019-04-04T14:20:14.710Z,31.67
2019-04-04T14:22:43.875Z,36.73
2019-04-04T14:25:13.360Z,39.23
2019-04-04T14:27:42.798Z,36.77
2019-04-04T14:30:12.981Z,34.37
2019-04-04T14:32:42.529Z,37.17
2019-04-04T14:35:14.939Z,34.57
2019-04-04T14:37:44.120Z,35.40
2019-04-04T14:40:13.707Z,33.27
2019-04-04T14:42:43.111Z,34.23
2019-04-04T14:45:12.631Z,32.30
2019-04-04T14:47:42.069Z,31.77
2019-04-04T14:50:11.623Z,35.00
2019-04-04T14:52:41.179Z,37.30
2019-04-04T14:55:10.899Z,35.90
2019-04-04T14:57:40.256Z,29.53
2019-04-04T15:00:18.125Z,33.87
2019-04-04T15:02:47.409Z,28.83
2019-04-04T15:05:16.651Z,38.37
2019-04-04T15:07:46.047Z,31.23
2019-04-04T15:10:15.585Z,35.37
2019-04-04T15:12:44.751Z,33.13
2019-04-04T15:15:14.352Z,33.43
2019-04-04T15:17:43.568Z,27.73
2019-04-04T15:20:13.471Z,33.20
2019-04-04T15:22:42.648Z,31.30
2019-04-04T15:25:12.810Z,27.60
2019-04-04T15:27:42.421Z,35.73
2019-04-04T15:30:12.307Z,35.07
2019-04-04T15:32:41.819Z,31.40
2019-04-04T15:35:11.559Z,33.90
2019-04-04T15:37:40.868Z,42.93
2019-04-04T15:40:10.908Z,32.97
2019-04-04T15:42:40.206Z,34.43
2019-04-04T15:45:10.876Z,38.47
2019-04-04T15:47:40.709Z,32.40
2019-04-04T15:50:10.939Z,34.27
2019-04-04T15:52:40.285Z,35.00
2019-04-04T15:55:10.102Z,28.73
2019-04-04T15:57:39.295Z,28.03
2019-04-04T16:00:09.655Z,31.03
2019-04-04T16:02:39.163Z,35.80
2019-04-04T16:05:09.058Z,28.20
2019-04-04T16:07:38.543Z,36.17
2019-04-04T16:10:08.492Z,32.17
2019-04-04T16:12:37.959Z,36.43
2019-04-04T16:15:07.369Z,31.57
2019-04-04T16:17:36.594Z,37.30
2019-04-04T16:20:11.098Z,39.23
2019-04-04T16:22:40.478Z,33.73
2019-04-04T16:25:12.071Z,32.53
2019-04-04T16:27:41.539Z,37.40
2019-04-04T16:30:11.466Z,34.03
2019-04-04T16:32:40.671Z,28.37
2019-04-04T16:35:10.616Z,32.03
2019-04-04T16:37:40.868Z,42.43
2019-04-04T16:40:11.403Z,41.17
2019-04-04T16:42:40.630Z,35.90
2019-04-04T16:45:11.144Z,30.53
2019-04-04T16:47:41.395Z,30.27
2019-04-04T16:50:11.412Z,31.80
2019-04-04T16:52:40.715Z,39.47
2019-04-04T16:55:11.189Z,42.93
2019-04-04T16:57:43.135Z,37.53
2019-04-04T17:00:20.725Z,33.23
2019-04-04T17:02:49.533Z,32.43
2019-04-04T17:05:19.038Z,43.03
2019-04-04T17:07:48.423Z,36.87
2019-04-04T17:10:17.945Z,42.70
2019-04-04T17:12:47.386Z,29.83
2019-04-04T17:15:16.938Z,31.70
2019-04-04T17:17:46.410Z,41.37
2019-04-04T17:20:16.039Z,33.43
2019-04-04T17:22:45.473Z,36.20
2019-04-04T17:25:16.122Z,33.87
2019-04-04T17:27:46.177Z,37.23
2019-04-04T17:30:16.093Z,29.00
2019-04-04T17:32:48.434Z,50.60
2019-04-04T17:35:17.172Z,37.10
2019-04-04T17:37:46.931Z,34.23
2019-04-04T17:40:16.834Z,31.57
2019-04-04T17:42:46.441Z,37.00
2019-04-04T17:45:17.394Z,31.50
2019-04-04T17:47:47.028Z,34.33
2019-04-04T17:50:19.493Z,43.77
2019-04-04T17:52:49.564Z,36.20
2019-04-04T17:55:18.891Z,32.37
2019-04-04T17:57:48.757Z,38.57
2019-04-04T18:00:21.023Z,38.80
2019-04-04T18:02:50.211Z,39.13
2019-04-04T18:05:20.659Z,48.27
2019-04-04T18:07:50.146Z,40.07
2019-04-04T18:10:20.369Z,43.07
2019-04-04T18:12:49.875Z,36.30
2019-04-04T18:15:19.530Z,34.37
2019-04-04T18:17:48.940Z,36.17
2019-04-04T18:20:20.050Z,29.90
2019-04-04T18:22:49.309Z,33.60
2019-04-04T18:25:18.614Z,35.10
2019-04-04T18:27:47.792Z,34.20
2019-04-04T18:30:17.639Z,38.13
2019-04-04T18:32:46.800Z,36.13
2019-04-04T18:35:16.300Z,38.63
2019-04-04T18:37:46.086Z,41.33
2019-04-04T18:40:15.950Z,36.50
2019-04-04T18:42:53.166Z,34.27
2019-04-04T18:45:16.486Z,42.60
2019-04-04T18:47:45.878Z,48.37
2019-04-04T18:50:15.749Z,38.43
2019-04-04T18:52:45.350Z,40.73
2019-04-04T18:55:19.951Z,49.80
2019-04-04T18:57:45.943Z,52.83
2019-04-04T19:00:15.845Z,39.83
2019-04-04T19:02:45.475Z,34.73
2019-04-04T19:05:15.005Z,35.97
2019-04-04T19:07:44.603Z,35.40
2019-04-04T19:10:14.641Z,36.37
2019-04-04T19:12:44.278Z,37.20
2019-04-04T19:15:16.040Z,32.80
2019-04-04T19:17:45.439Z,40.77
2019-04-04T19:20:15.145Z,40.70
2019-04-04T19:22:44.863Z,34.67
2019-04-04T19:25:15.691Z,31.17
2019-04-04T19:27:44.858Z,32.13
2019-04-04T19:30:16.260Z,27.93
2019-04-04T19:32:45.493Z,37.77
2019-04-04T19:35:16.562Z,25.20
2019-04-04T19:37:54.466Z,28.73
2019-04-04T19:40:18.349Z,29.97
2019-04-04T19:42:47.694Z,34.37
2019-04-04T19:45:21.092Z,32.57
2019-04-04T19:47:49.155Z,44.90
2019-04-04T19:50:18.734Z,42.50
2019-04-04T19:52:48.136Z,38.53
2019-04-04T19:55:17.606Z,30.97
2019-04-04T19:57:46.766Z,31.83
2019-04-04T20:00:16.961Z,32.37
2019-04-04T20:02:46.221Z,32.77
2019-04-04T20:05:15.967Z,30.47
2019-04-04T20:07:46.821Z,29.17
2019-04-04T20:10:16.360Z,30.17
2019-04-04T20:12:45.774Z,40.70
2019-04-04T20:15:15.122Z,34.10
2019-04-04T20:17:45.265Z,29.60
2019-04-04T20:20:15.979Z,35.10
2019-04-04T20:22:45.566Z,33.70
2019-04-04T20:25:15.083Z,33.37
2019-04-04T20:27:53.947Z,37.10
2019-04-04T20:30:16.822Z,33.20
2019-04-04T20:32:45.981Z,30.97
2019-04-04T20:35:15.429Z,26.50
2019-04-04T20:37:45.785Z,36.87
2019-04-04T20:40:15.327Z,33.87
2019-04-04T20:42:44.769Z,26.23
2019-04-04T20:45:14.329Z,27.90
2019-04-04T20:47:44.159Z,27.37
2019-04-04T20:50:13.457Z,30.50
2019-04-04T20:52:43.654Z,31.70
2019-04-04T20:55:13.253Z,41.60
2019-04-04T20:57:42.617Z,31.20
2019-04-04T21:00:12.578Z,31.97
2019-04-04T21:02:42.041Z,29.80
2019-04-04T21:05:11.475Z,32.37
2019-04-04T21:07:40.765Z,31.57
2019-04-04T21:10:12.283Z,34.37
2019-04-04T21:12:41.700Z,31.13
2019-04-04T21:15:11.051Z,30.77
2019-04-04T21:17:40.294Z,36.17
2019-04-04T21:20:10.131Z,33.53
2019-04-04T21:22:40.914Z,30.30
2019-04-04T21:25:11.584Z,28.50
2019-04-04T21:27:42.311Z,32.53
2019-04-04T21:30:12.118Z,32.57
2019-04-04T21:32:41.418Z,31.37
2019-04-04T21:35:11.143Z,34.53
2019-04-04T21:37:40.498Z,30.67
2019-04-04T21:40:10.733Z,29.93
2019-04-04T21:42:39.908Z,32.33
2019-04-04T21:45:10.098Z,38.40
2019-04-04T21:47:39.297Z,31.87
2019-04-04T21:50:09.139Z,34.53
2019-04-04T21:52:38.743Z,26.93
2019-04-04T21:55:08.338Z,29.13
2019-04-04T21:57:37.714Z,32.37
2019-04-04T22:00:08.526Z,31.67
2019-04-04T22:02:38.082Z,32.23
2019-04-04T22:05:08.971Z,22.87
2019-04-04T22:07:38.382Z,34.67
2019-04-04T22:10:09.914Z,34.23
2019-04-04T22:12:39.246Z,29.03
2019-04-04T22:15:09.192Z,35.60
2019-04-04T22:17:40.310Z,30.63
2019-04-04T22:20:10.114Z,32.70
2019-04-04T22:22:39.353Z,32.83
2019-04-04T22:25:09.154Z,30.43
2019-04-04T22:27:38.335Z,28.43
2019-04-04T22:30:09.489Z,32.37
2019-04-04T22:32:38.987Z,30.50
2019-04-04T22:35:08.493Z,33.57
2019-04-04T22:37:38.834Z,30.87
2019-04-04T22:40:08.643Z,33.90
2019-04-04T22:42:37.813Z,31.93
2019-04-04T22:45:08.587Z,30.13
2019-04-04T22:47:38.069Z,33.33
2019-04-04T22:50:07.998Z,29.47
2019-04-04T22:52:37.550Z,27.43
2019-04-04T22:55:07.430Z,35.47
2019-04-04T22:57:36.902Z,31.40
2019-04-04T23:00:11.365Z,32.40
2019-04-04T23:02:40.819Z,33.43
2019-04-04T23:05:10.372Z,38.03
2019-04-04T23:07:39.955Z,31.97
2019-04-04T23:10:10.323Z,32.03
2019-04-04T23:12:39.735Z,29.10
2019-04-04T23:15:15.520Z,30.90
2019-04-04T23:17:45.535Z,37.20
2019-04-04T23:20:15.231Z,30.63
2019-04-04T23:22:52.603Z,38.03
2019-04-04T23:25:16.617Z,28.70
2019-04-04T23:27:45.870Z,31.77
2019-04-04T23:30:15.282Z,30.63
2019-04-04T23:32:44.723Z,32.23
2019-04-04T23:35:16.485Z,27.40
2019-04-04T23:37:45.011Z,31.03
2019-04-04T23:40:17.812Z,26.00
2019-04-04T23:42:47.320Z,28.07
2019-04-04T23:45:16.794Z,29.73
2019-04-04T23:47:46.260Z,30.73
2019-04-04T23:50:16.310Z,30.87
2019-04-04T23:52:45.801Z,30.13
2019-04-04T23:55:15.179Z,29.17
2019-04-04T23:57:44.346Z,31.37
